Time;durP1;ratioP1;P1;durP2;ratioP2;P2;SDS_P1;SDS_P2;PMS_P1;PMS_P2;Temp;Humidity;BMP_temperature;BMP_pressure;BME280_temperature;BME280_humidity;BME280_pressure;Samples;Min_cycle;Max_cycle;Signal;HPM_P1;HPM_P2
2022/09/07 00:00:27;;;;;;;7.87;5.27;;;;;;;16.99;100.00;99829.25;4984804;28;20234;-61
2022/09/07 00:02:53;;;;;;;6.10;5.10;;;;;;;17.05;100.00;99832.13;4999923;28;20794;-61
2022/09/07 00:05:18;;;;;;;5.97;5.37;;;;;;;17.09;100.00;99838.72;4992726;28;20278;-61
2022/09/07 00:07:43;;;;;;;6.27;5.60;;;;;;;17.10;100.00;99842.13;4992128;28;20644;-61
2022/09/07 00:10:09;;;;;;;5.77;5.27;;;;;;;17.14;100.00;99837.50;4983662;28;20214;-61
2022/09/07 00:12:34;;;;;;;14.03;5.70;;;;;;;17.18;100.00;99836.25;5004690;28;20199;-61
2022/09/07 00:15:01;;;;;;;10.73;6.10;;;;;;;17.14;100.00;99845.28;4991085;28;20219;-61
2022/09/07 00:17:26;;;;;;;9.13;5.33;;;;;;;17.09;100.00;99858.66;4993115;28;20180;-61
2022/09/07 00:19:54;;;;;;;7.80;5.40;;;;;;;17.16;100.00;99858.97;4991863;28;20683;-61
2022/09/07 00:22:19;;;;;;;6.17;5.70;;;;;;;17.16;100.00;99853.78;4997484;28;20226;-61
2022/09/07 00:24:44;;;;;;;6.27;5.67;;;;;;;17.20;100.00;99852.56;4992109;28;20258;-62
2022/09/07 00:27:10;;;;;;;6.30;5.27;;;;;;;17.15;100.00;99865.13;4991432;28;20215;-61
2022/09/07 00:29:35;;;;;;;6.23;5.63;;;;;;;17.14;100.00;99864.31;4992003;28;20649;-61
2022/09/07 00:32:01;;;;;;;7.67;5.60;;;;;;;17.23;100.00;99870.50;4987967;28;20774;-61
2022/09/07 00:34:26;;;;;;;8.10;6.80;;;;;;;17.19;100.00;99898.53;4992318;28;20256;-62
2022/09/07 00:36:51;;;;;;;6.07;5.47;;;;;;;17.18;100.00;99924.63;4995920;28;20179;-61
2022/09/07 00:39:17;;;;;;;6.40;4.77;;;;;;;17.06;100.00;99926.50;4988749;28;20183;-62
2022/09/07 00:41:42;;;;;;;6.20;4.60;;;;;;;17.09;100.00;99903.69;4993184;28;20581;-61
2022/09/07 00:44:56;;;;;;;5.13;4.50;;;;;;;17.11;100.00;99890.56;4993673;28;20191;-63
2022/09/07 00:47:38;;;;;;;7.13;4.57;;;;;;;17.07;100.00;99869.19;5027355;28;20190;-63
2022/09/07 00:50:09;;;;;;;7.30;4.83;;;;;;;17.05;100.00;99857.28;4996190;28;20315;-63
2022/09/07 00:52:36;;;;;;;5.77;4.97;;;;;;;16.97;100.00;99844.13;4997329;28;20201;-63
2022/09/07 00:55:06;;;;;;;9.17;5.33;;;;;;;16.83;100.00;99835.72;5027716;28;20189;-63
2022/09/07 00:57:33;;;;;;;6.50;5.63;;;;;;;16.86;100.00;99813.88;5012427;28;20197;-63
2022/09/07 00:59:59;;;;;;;8.20;5.77;;;;;;;16.90;100.00;99815.25;5026833;28;20355;-64
2022/09/07 01:02:25;;;;;;;6.30;5.67;;;;;;;16.97;100.00;99794.75;5002340;28;20768;-64
2022/09/07 01:04:57;;;;;;;6.80;6.17;;;;;;;16.94;100.00;99788.06;5007120;28;20229;-63
2022/09/07 01:07:22;;;;;;;9.03;6.27;;;;;;;16.92;100.00;99790.00;5011945;28;20193;-63
2022/09/07 01:09:49;;;;;;;10.47;7.00;;;;;;;16.89;100.00;99783.25;5027961;28;20194;-63
2022/09/07 01:12:15;;;;;;;6.67;6.07;;;;;;;16.87;100.00;99773.91;4992538;28;20584;-64
2022/09/07 01:14:45;;;;;;;9.60;6.60;;;;;;;16.82;100.00;99760.50;5025195;28;20237;-63
2022/09/07 01:17:31;;;;;;;10.80;6.83;;;;;;;16.73;100.00;99751.75;5027979;28;20662;-63
2022/09/07 01:20:30;;;;;;;8.07;6.83;;;;;;;16.80;100.00;99734.69;5011638;28;20210;-66
2022/09/07 01:23:14;;;;;;;9.43;7.67;;;;;;;16.74;100.00;99727.41;4985347;28;20694;-63
2022/09/07 01:26:26;;;;;;;7.73;7.03;;;;;;;16.75;100.00;99740.25;4971839;28;20184;-63
2022/09/07 01:29:00;;;;;;;8.27;6.70;;;;;;;16.72;100.00;99750.09;4971407;28;20173;-63
2022/09/07 01:31:41;;;;;;;9.30;6.93;;;;;;;16.68;100.00;99766.91;4975246;28;20277;-63
2022/09/07 01:34:20;;;;;;;8.50;7.70;;;;;;;16.74;100.00;99772.38;4993187;28;20184;-63
2022/09/07 01:37:01;;;;;;;10.93;7.10;;;;;;;16.82;100.00;99821.09;4989836;28;20267;-63
2022/09/07 01:39:37;;;;;;;11.53;8.40;;;;;;;16.94;100.00;99847.81;4990825;28;20187;-64
2022/09/07 01:42:13;;;;;;;11.57;7.20;;;;;;;16.84;100.00;99855.53;4983585;28;20241;-63
2022/09/07 01:44:47;;;;;;;6.67;6.00;;;;;;;16.79;100.00;99852.50;4978827;28;20312;-63
2022/09/07 01:47:28;;;;;;;8.47;6.80;;;;;;;16.69;100.00;99841.25;4987462;28;20195;-64
2022/09/07 01:50:06;;;;;;;7.30;6.60;;;;;;;16.67;100.00;99830.19;4990467;28;20183;-63
2022/09/07 01:52:36;;;;;;;11.97;6.93;;;;;;;16.82;100.00;99810.72;4970278;28;20299;-63
2022/09/07 01:55:09;;;;;;;8.70;6.53;;;;;;;16.68;100.00;99809.25;4982736;28;20274;-63
2022/09/07 01:57:44;;;;;;;8.13;6.83;;;;;;;16.61;100.00;99797.78;4986084;28;20217;-63
2022/09/07 02:00:12;;;;;;;9.03;7.17;;;;;;;16.64;100.00;99797.50;4981670;28;20570;-63
2022/09/07 02:02:54;;;;;;;8.33;7.00;;;;;;;16.62;100.00;99802.00;4982698;28;20176;-63
2022/09/07 02:05:24;;;;;;;9.50;7.53;;;;;;;16.55;100.00;99796.50;4986994;28;20240;-64
2022/09/07 02:07:52;;;;;;;8.10;7.30;;;;;;;16.55;100.00;99812.09;4985804;28;20218;-64
2022/09/07 02:10:23;;;;;;;7.87;6.83;;;;;;;16.43;100.00;99915.19;4982843;28;20188;-63
2022/09/07 02:12:58;;;;;;;8.90;7.10;;;;;;;16.39;100.00;99890.41;4994536;28;20548;-63
2022/09/07 02:15:31;;;;;;;8.00;6.67;;;;;;;16.42;100.00;99895.38;4986326;28;20650;-63
2022/09/07 02:18:03;;;;;;;8.40;7.43;;;;;;;16.45;100.00;99881.31;4986855;28;20194;-66
2022/09/07 02:20:34;;;;;;;10.20;7.50;;;;;;;16.40;100.00;99849.72;4998276;28;20292;-63
2022/09/07 02:23:05;;;;;;;7.90;7.23;;;;;;;16.44;100.00;99836.34;4997837;28;20241;-63
2022/09/07 02:25:37;;;;;;;8.03;6.53;;;;;;;16.46;100.00;99836.25;4991548;28;20640;-63
2022/09/07 02:28:15;;;;;;;8.60;6.93;;;;;;;16.46;100.00;99839.66;4987616;28;20199;-63
2022/09/07 02:30:42;;;;;;;11.10;6.40;;;;;;;16.49;100.00;99841.16;4976145;28;20366;-62
2022/09/07 02:33:07;;;;;;;6.57;5.67;;;;;;;16.52;100.00;99829.69;4996847;28;20195;-62
2022/09/07 02:35:33;;;;;;;6.40;5.23;;;;;;;16.54;100.00;99825.22;4987974;28;20188;-63
2022/09/07 02:38:02;;;;;;;5.77;4.40;;;;;;;16.53;100.00;99821.78;4984549;28;20195;-63
2022/09/07 02:40:27;;;;;;;5.40;4.33;;;;;;;16.58;100.00;99827.44;4982381;28;20234;-63
2022/09/07 02:42:54;;;;;;;7.40;5.13;;;;;;;16.60;100.00;99820.31;5002566;28;20190;-62
2022/09/07 02:45:20;;;;;;;8.17;5.77;;;;;;;16.57;100.00;99819.75;4980462;28;20188;-63
2022/09/07 02:48:00;;;;;;;6.63;5.93;;;;;;;16.56;100.00;99807.69;4986206;28;20190;-62
2022/09/07 02:50:49;;;;;;;7.53;6.27;;;;;;;16.50;100.00;99797.88;4981381;28;20253;-62
2022/09/07 02:53:23;;;;;;;9.00;6.07;;;;;;;16.50;100.00;99808.25;4989214;28;20235;-63
2022/09/07 02:55:57;;;;;;;9.27;6.60;;;;;;;16.57;100.00;99801.56;4988515;28;20197;-62
2022/09/07 02:58:33;;;;;;;6.73;6.20;;;;;;;16.60;100.00;99799.53;4990299;28;20195;-62
2022/09/07 03:01:05;;;;;;;7.50;6.43;;;;;;;16.73;100.00;99798.50;4980499;28;20296;-63
2022/09/07 03:03:39;;;;;;;7.37;6.77;;;;;;;16.66;100.00;99787.81;4989765;28;20195;-62
2022/09/07 03:06:12;;;;;;;7.77;6.73;;;;;;;16.74;100.00;99787.97;4991796;28;20575;-63
2022/09/07 03:08:43;;;;;;;7.97;6.67;;;;;;;16.53;100.00;99793.22;4990092;28;20264;-62
2022/09/07 03:11:08;;;;;;;9.93;7.57;;;;;;;16.58;100.00;99798.03;4979072;28;20215;-62
2022/09/07 03:13:34;;;;;;;10.53;7.20;;;;;;;16.57;100.00;99806.75;4990016;28;20690;-62
2022/09/07 03:15:59;;;;;;;9.70;8.43;;;;;;;16.48;100.00;99794.56;4982497;28;20222;-61
2022/09/07 03:18:26;;;;;;;8.33;7.50;;;;;;;16.53;100.00;99797.59;4987098;28;20196;-63
2022/09/07 03:20:51;;;;;;;8.40;7.67;;;;;;;16.50;100.00;99803.88;4976242;28;20261;-62
2022/09/07 03:23:17;;;;;;;8.57;7.77;;;;;;;16.66;100.00;99806.00;4987277;28;20267;-63
2022/09/07 03:25:43;;;;;;;9.60;8.50;;;;;;;16.68;100.00;99811.03;4989704;28;20578;-62
2022/09/07 03:28:08;;;;;;;9.10;7.60;;;;;;;16.67;100.00;99806.81;4993090;28;20175;-63
2022/09/07 03:30:34;;;;;;;9.03;7.70;;;;;;;16.65;100.00;99806.94;4968803;28;20718;-62
2022/09/07 03:32:59;;;;;;;10.77;8.40;;;;;;;16.76;100.00;99798.25;5009432;28;20179;-63
2022/09/07 03:35:24;;;;;;;8.47;7.57;;;;;;;16.76;100.00;99798.25;4992338;28;20678;-63
2022/09/07 03:37:50;;;;;;;8.33;7.53;;;;;;;16.80;100.00;99791.81;4987379;28;20571;-63
2022/09/07 03:40:16;;;;;;;8.80;8.00;;;;;;;16.72;100.00;99802.03;4974742;28;20251;-62
2022/09/07 03:42:41;;;;;;;8.67;7.87;;;;;;;16.71;100.00;99814.22;4997562;28;20262;-63
2022/09/07 03:45:08;;;;;;;9.20;7.50;;;;;;;16.80;100.00;99804.00;4989159;28;20183;-62
2022/09/07 03:47:34;;;;;;;8.00;7.20;;;;;;;16.80;100.00;99799.63;4983154;28;20183;-62
2022/09/07 03:50:00;;;;;;;11.23;8.63;;;;;;;16.71;100.00;99788.25;4992273;28;20219;-62
2022/09/07 03:52:25;;;;;;;9.23;7.70;;;;;;;16.77;100.00;99798.09;4996802;28;20319;-63
2022/09/07 03:54:51;;;;;;;11.27;7.73;;;;;;;16.78;100.00;99794.56;4991577;28;20266;-62
2022/09/07 03:57:19;;;;;;;8.77;7.87;;;;;;;16.52;100.00;99801.13;4983515;28;20188;-62
2022/09/07 03:59:44;;;;;;;8.03;7.33;;;;;;;16.53;100.00;99800.19;4991845;28;20183;-62
2022/09/07 04:02:09;;;;;;;8.27;7.47;;;;;;;16.52;100.00;99798.53;4988006;28;20272;-63
2022/09/07 04:04:35;;;;;;;15.23;7.87;;;;;;;16.52;100.00;99808.94;4990260;28;20265;-63
2022/09/07 04:07:00;;;;;;;8.67;7.80;;;;;;;16.41;100.00;99802.03;4992481;28;20205;-62
2022/09/07 04:09:25;;;;;;;14.73;8.83;;;;;;;16.38;100.00;99802.31;4992490;28;20186;-63
2022/09/07 04:11:51;;;;;;;10.47;8.50;;;;;;;16.36;100.00;99805.03;4985867;28;20222;-63
2022/09/07 04:14:16;;;;;;;8.87;8.17;;;;;;;16.39;100.00;99807.34;5000033;28;21203;-63
2022/09/07 04:16:44;;;;;;;11.03;9.50;;;;;;;16.37;100.00;99798.91;4987932;28;20182;-62
2022/09/07 04:19:09;;;;;;;9.93;8.90;;;;;;;16.33;100.00;99802.69;4986122;28;21019;-62
2022/09/07 04:21:35;;;;;;;9.50;8.50;;;;;;;16.42;100.00;99809.72;4995798;28;20239;-63
2022/09/07 04:24:00;;;;;;;12.80;9.10;;;;;;;16.46;100.00;99807.69;4988324;28;20998;-62
2022/09/07 04:26:29;;;;;;;8.97;8.27;;;;;;;16.41;100.00;99802.03;4992257;28;20212;-64
2022/09/07 04:28:54;;;;;;;11.73;8.53;;;;;;;16.41;100.00;99812.41;5003820;28;20242;-62
2022/09/07 04:31:21;;;;;;;9.67;8.57;;;;;;;16.40;100.00;99823.78;4979651;28;20239;-63
2022/09/07 04:33:48;;;;;;;9.10;8.13;;;;;;;16.41;100.00;99828.00;4991269;28;20207;-63
2022/09/07 04:36:14;;;;;;;9.40;7.57;;;;;;;16.40;100.00;99821.97;4985260;28;20270;-62
2022/09/07 04:38:40;;;;;;;12.63;8.40;;;;;;;16.33;100.00;99817.44;4992261;28;20196;-63
2022/09/07 04:41:26;;;;;;;10.73;8.90;;;;;;;16.28;100.00;99817.81;4977901;28;20287;-63
2022/09/07 04:43:57;;;;;;;13.03;8.23;;;;;;;16.37;100.00;99814.47;4982515;28;20196;-63
2022/09/07 04:46:25;;;;;;;11.63;8.77;;;;;;;16.30;100.00;99805.53;4980152;28;20183;-62
2022/09/07 04:48:59;;;;;;;10.30;9.27;;;;;;;16.30;100.00;99811.53;4989449;28;20560;-63
2022/09/07 04:51:27;;;;;;;10.40;8.97;;;;;;;16.26;100.00;99807.56;4981853;28;20716;-62
2022/09/07 04:53:54;;;;;;;14.23;8.77;;;;;;;16.27;100.00;99810.97;4981013;28;20631;-62
2022/09/07 04:56:21;;;;;;;9.90;8.90;;;;;;;16.28;100.00;99815.22;4985237;28;20228;-63
2022/09/07 04:58:47;;;;;;;11.30;8.77;;;;;;;16.27;100.00;99817.00;4980314;28;20662;-62
2022/09/07 05:01:18;;;;;;;10.90;8.10;;;;;;;16.23;100.00;99820.78;4979566;28;20234;-63
2022/09/07 05:03:43;;;;;;;10.00;9.00;;;;;;;16.26;100.00;99812.75;4990787;28;20200;-63
2022/09/07 05:06:09;;;;;;;11.20;8.57;;;;;;;16.19;100.00;99816.81;4984630;28;20180;-62
2022/09/07 05:08:42;;;;;;;8.83;7.97;;;;;;;16.14;100.00;99822.38;4988523;28;20673;-62
2022/09/07 05:11:09;;;;;;;10.83;9.10;;;;;;;16.07;100.00;99825.59;4990491;28;20262;-62
2022/09/07 05:13:35;;;;;;;10.00;9.00;;;;;;;16.06;100.00;99822.19;4986938;28;20274;-62
2022/09/07 05:16:09;;;;;;;16.53;14.77;;;;;;;16.08;100.00;99822.06;4983735;28;20207;-63
2022/09/07 05:18:34;;;;;;;10.63;9.57;;;;;;;16.03;100.00;99832.00;4978332;28;20271;-62
2022/09/07 05:21:08;;;;;;;9.83;8.83;;;;;;;16.02;100.00;99833.75;4977357;28;20337;-66
2022/09/07 05:23:33;;;;;;;13.53;9.47;;;;;;;16.14;100.00;99840.53;4998750;28;20198;-62
2022/09/07 05:25:59;;;;;;;10.63;9.53;;;;;;;16.20;100.00;99833.19;4982234;28;20195;-63
2022/09/07 05:28:24;;;;;;;11.03;9.33;;;;;;;16.27;100.00;99840.38;4979905;28;20441;-62
2022/09/07 05:30:49;;;;;;;10.87;9.50;;;;;;;16.32;100.00;99826.97;4969791;28;20326;-62
2022/09/07 05:33:15;;;;;;;9.50;8.67;;;;;;;16.41;100.00;99828.81;4981377;28;20179;-62
2022/09/07 05:35:40;;;;;;;11.40;9.80;;;;;;;16.46;100.00;99842.25;4989503;28;20274;-63
2022/09/07 05:38:05;;;;;;;12.53;10.20;;;;;;;16.50;100.00;99852.38;5005924;28;20282;-63
2022/09/07 05:40:31;;;;;;;12.23;10.93;;;;;;;16.55;100.00;99858.81;4978744;28;20555;-63
2022/09/07 05:42:57;;;;;;;12.33;10.97;;;;;;;16.65;100.00;99852.88;4981022;28;20246;-62
2022/09/07 05:45:22;;;;;;;13.97;11.50;;;;;;;16.78;100.00;99853.47;4981893;28;20191;-63
2022/09/07 05:47:49;;;;;;;14.00;11.03;;;;;;;16.86;100.00;99856.25;4977391;28;20631;-62
2022/09/07 05:50:15;;;;;;;13.87;11.57;;;;;;;16.92;100.00;99860.13;4990873;28;20867;-64
2022/09/07 05:52:40;;;;;;;12.67;11.30;;;;;;;16.94;100.00;99863.41;4995182;28;20267;-63
2022/09/07 05:55:06;;;;;;;13.80;11.40;;;;;;;16.93;100.00;99862.59;4972848;28;20658;-62
2022/09/07 05:57:31;;;;;;;13.60;12.20;;;;;;;17.05;100.00;99854.69;4978115;28;20274;-63
2022/09/07 05:59:56;;;;;;;13.63;11.00;;;;;;;17.17;100.00;99853.66;4987147;28;20571;-62
2022/09/07 06:02:22;;;;;;;12.80;10.83;;;;;;;17.27;100.00;99849.28;4989246;28;20227;-63
2022/09/07 06:04:47;;;;;;;13.37;11.17;;;;;;;17.32;100.00;99850.69;4974829;28;20188;-63
2022/09/07 06:07:13;;;;;;;11.77;10.57;;;;;;;17.46;100.00;99852.88;4986169;28;20271;-63
2022/09/07 06:09:40;;;;;;;13.53;12.10;;;;;;;17.59;100.00;99847.44;4989856;28;20706;-62
2022/09/07 06:12:05;;;;;;;12.57;9.77;;;;;;;17.69;100.00;99842.25;4990380;28;20231;-63
2022/09/07 06:14:34;;;;;;;10.80;9.73;;;;;;;17.76;100.00;99835.53;4972731;28;20234;-63
2022/09/07 06:17:00;;;;;;;12.47;9.87;;;;;;;17.61;100.00;99850.72;4977290;28;20662;-63
2022/09/07 06:19:25;;;;;;;13.27;10.00;;;;;;;17.79;100.00;99855.25;4991429;28;20262;-63
2022/09/07 06:21:50;;;;;;;12.57;10.23;;;;;;;18.01;100.00;99856.78;4980680;28;20223;-63
2022/09/07 06:24:16;;;;;;;15.20;10.23;;;;;;;18.19;100.00;99855.13;4979515;28;20218;-63
2022/09/07 06:26:41;;;;;;;10.40;8.87;;;;;;;18.31;100.00;99850.59;5004818;28;20179;-63
2022/09/07 06:29:08;;;;;;;11.03;7.50;;;;;;;18.43;100.00;99855.63;5008842;28;20187;-63
2022/09/07 06:31:33;;;;;;;6.40;5.80;;;;;;;18.47;100.00;99856.97;4988126;28;20760;-64
2022/09/07 06:33:59;;;;;;;5.53;5.03;;;;;;;18.44;100.00;99852.88;4989439;28;20271;-62
2022/09/07 06:36:26;;;;;;;7.87;6.30;;;;;;;18.73;100.00;99854.59;4995116;28;20723;-63
2022/09/07 06:38:54;;;;;;;8.07;6.33;;;;;;;19.06;100.00;99849.00;5005235;28;20286;-63
2022/09/07 06:41:20;;;;;;;7.00;6.20;;;;;;;19.86;100.00;99848.34;4990242;28;20229;-63
2022/09/07 06:43:46;;;;;;;5.90;5.07;;;;;;;20.67;100.00;99849.88;4996837;28;20199;-64
2022/09/07 06:46:12;;;;;;;6.23;4.47;;;;;;;21.56;100.00;99850.41;4984887;28;20526;-63
2022/09/07 06:48:38;;;;;;;5.33;3.43;;;;;;;22.81;100.00;99846.69;4992436;28;20198;-63
2022/09/07 06:51:10;;;;;;;4.87;3.17;;;;;;;24.07;97.18;99843.97;5002432;28;20249;-63
2022/09/07 06:53:36;;;;;;;4.37;2.80;;;;;;;24.18;90.64;99851.41;4991013;28;20187;-63
2022/09/07 06:56:11;;;;;;;8.77;3.20;;;;;;;23.97;91.78;99861.78;5009057;28;20198;-63
2022/09/07 06:58:37;;;;;;;3.27;2.80;;;;;;;23.75;93.36;99850.28;4993951;28;20617;-62
2022/09/07 07:01:08;;;;;;;5.23;3.47;;;;;;;23.00;97.54;99848.06;4970656;28;20231;-61
2022/09/07 07:03:33;;;;;;;4.53;3.10;;;;;;;22.49;100.00;99851.03;4985584;28;20199;-61
2022/09/07 07:05:59;;;;;;;4.43;3.27;;;;;;;21.83;100.00;99852.88;4982689;28;20203;-63
2022/09/07 07:08:24;;;;;;;6.07;3.50;;;;;;;22.65;100.00;99852.81;5004345;28;20215;-62
2022/09/07 07:10:51;;;;;;;3.40;3.10;;;;;;;23.44;100.00;99849.34;4980668;28;20639;-62
2022/09/07 07:13:17;;;;;;;6.13;3.00;;;;;;;25.68;85.22;99850.44;4995396;28;20395;-63
2022/09/07 07:15:43;;;;;;;4.03;2.70;;;;;;;26.48;74.57;99850.25;4986582;28;20701;-63
2022/09/07 07:18:09;;;;;;;2.72;2.53;;;;;;;27.70;66.75;99851.28;4992697;28;20198;-63
2022/09/07 07:20:35;;;;;;;5.05;2.80;;;;;;;29.17;59.03;99852.00;4981312;28;20250;-63
2022/09/07 07:23:01;;;;;;;11.05;2.53;;;;;;;29.64;56.72;99862.31;5000180;28;20183;-63
2022/09/07 07:25:26;;;;;;;4.72;1.90;;;;;;;29.57;53.80;99867.69;4990294;28;20690;-63
2022/09/07 07:27:52;;;;;;;3.40;2.00;;;;;;;30.46;53.23;99874.66;4993880;28;20180;-64
2022/09/07 07:30:18;;;;;;;4.15;2.05;;;;;;;28.58;55.64;99869.72;4962464;28;20187;-61
2022/09/07 07:32:44;;;;;;;4.78;2.05;;;;;;;29.50;57.10;99877.50;4995349;28;20191;-61
2022/09/07 07:35:10;;;;;;;4.88;1.95;;;;;;;30.52;50.99;99875.66;4994196;28;20187;-61
2022/09/07 07:37:36;;;;;;;4.85;1.98;;;;;;;31.08;49.61;99873.78;4980837;28;20196;-62
2022/09/07 07:40:03;;;;;;;4.72;2.00;;;;;;;31.94;44.69;99878.06;4984933;28;20209;-61
2022/09/07 07:42:29;;;;;;;5.30;1.63;;;;;;;31.70;45.10;99878.88;4980126;28;20220;-62
2022/09/07 07:44:54;;;;;;;6.03;1.65;;;;;;;30.91;48.81;99882.34;4987562;28;20184;-62
2022/09/07 07:47:20;;;;;;;7.03;2.22;;;;;;;30.47;48.59;99881.59;4987581;28;20196;-63
2022/09/07 07:49:45;;;;;;;4.68;2.08;;;;;;;30.47;50.40;99878.16;4989061;28;20546;-62
2022/09/07 07:52:11;;;;;;;4.30;1.95;;;;;;;31.21;47.75;99878.94;4988824;28;20380;-63
2022/09/07 07:54:36;;;;;;;3.40;1.80;;;;;;;30.65;47.64;99883.50;5004694;28;20183;-63
2022/09/07 07:57:03;;;;;;;8.18;2.22;;;;;;;30.91;47.74;99876.22;4994133;28;20194;-63
2022/09/07 07:59:28;;;;;;;5.78;2.38;;;;;;;31.15;45.64;99893.09;4980680;28;20175;-62
2022/09/07 08:01:53;;;;;;;3.50;2.00;;;;;;;30.31;49.05;99890.94;4983541;28;20229;-62
2022/09/07 08:04:19;;;;;;;6.20;2.50;;;;;;;29.89;50.71;99902.13;4983968;28;20184;-62
2022/09/07 08:06:44;;;;;;;4.72;2.15;;;;;;;28.02;59.15;99893.78;4988439;28;20698;-62
2022/09/07 08:09:12;;;;;;;6.35;1.92;;;;;;;28.27;60.43;99885.25;4988138;28;20192;-62
2022/09/07 08:11:39;;;;;;;6.38;2.35;;;;;;;29.15;54.96;99899.09;4985828;28;20234;-62
2022/09/07 08:14:05;;;;;;;6.78;2.30;;;;;;;29.10;55.38;99897.06;4990732;28;20232;-62
2022/09/07 08:16:31;;;;;;;4.75;2.47;;;;;;;29.25;54.21;99888.84;4989413;28;20183;-62
2022/09/07 08:18:57;;;;;;;6.28;2.72;;;;;;;29.59;56.02;99888.66;4989469;28;20218;-62
2022/09/07 08:21:22;;;;;;;3.95;2.22;;;;;;;29.30;53.23;99891.69;4980423;28;20246;-62
2022/09/07 08:23:47;;;;;;;6.22;2.10;;;;;;;30.31;50.71;99892.81;4988898;28;20211;-62
2022/09/07 08:26:13;;;;;;;5.75;2.17;;;;;;;31.46;45.40;99903.75;4986757;28;20253;-62
2022/09/07 08:28:40;;;;;;;2.83;1.73;;;;;;;31.52;44.67;99898.31;4991682;28;20186;-63
2022/09/07 08:31:07;;;;;;;5.43;2.22;;;;;;;32.81;41.77;99897.81;4977760;28;20235;-63
2022/09/07 08:33:36;;;;;;;4.35;2.35;;;;;;;33.52;40.52;99902.06;4997365;28;20176;-63
2022/09/07 08:36:04;;;;;;;7.10;2.13;;;;;;;33.81;38.85;99907.31;4994111;28;20187;-63
2022/09/07 08:38:31;;;;;;;4.53;2.25;;;;;;;32.70;40.57;99906.59;4990194;28;20619;-64
2022/09/07 08:40:56;;;;;;;3.78;2.10;;;;;;;31.91;42.99;99903.25;4987575;28;20361;-63
2022/09/07 08:43:32;;;;;;;4.22;1.75;;;;;;;32.28;42.61;99910.25;4982579;28;20648;-63
2022/09/07 08:46:04;;;;;;;7.47;2.22;;;;;;;32.60;40.88;99908.00;4998985;28;20186;-63
2022/09/07 08:48:33;;;;;;;4.15;2.20;;;;;;;32.45;41.68;99920.97;4991527;28;20186;-62
2022/09/07 08:51:10;;;;;;;4.70;2.05;;;;;;;31.68;43.66;99926.13;4986226;28;20717;-62
2022/09/07 08:53:44;;;;;;;4.25;1.92;;;;;;;30.83;46.46;99925.13;4998914;28;20198;-62
2022/09/07 08:56:25;;;;;;;4.18;2.38;;;;;;;29.10;52.43;99922.72;4990450;28;20190;-62
2022/09/07 08:58:52;;;;;;;4.78;2.00;;;;;;;29.95;50.98;99925.13;4984987;28;20301;-62
2022/09/07 09:01:29;;;;;;;7.10;2.58;;;;;;;28.43;55.73;99921.06;4980545;28;20265;-62
2022/09/07 09:03:54;;;;;;;3.83;1.83;;;;;;;27.61;60.92;99929.13;4982313;28;20186;-61
2022/09/07 09:06:43;;;;;;;5.93;2.13;;;;;;;27.39;64.96;99921.31;4989208;28;20257;-61
2022/09/07 09:09:14;;;;;;;3.63;2.05;;;;;;;27.48;62.18;99918.53;4982903;28;20196;-62
2022/09/07 09:11:54;;;;;;;8.43;2.53;;;;;;;26.95;66.16;99921.75;4981842;28;20248;-61
2022/09/07 09:14:43;;;;;;;11.10;2.33;;;;;;;26.79;63.85;99922.88;4988147;28;20223;-62
2022/09/07 09:17:26;;;;;;;7.90;2.22;;;;;;;26.67;68.11;99918.13;4999856;28;20230;-61
2022/09/07 09:20:01;;;;;;;5.60;2.30;;;;;;;27.00;67.12;99920.16;4988967;28;20526;-62
2022/09/07 09:22:27;;;;;;;5.75;2.25;;;;;;;26.07;71.67;99915.88;4988225;28;20243;-62
2022/09/07 09:25:00;;;;;;;4.90;2.30;;;;;;;28.57;60.27;99916.53;4983692;28;20579;-62
2022/09/07 09:27:25;;;;;;;5.07;1.98;;;;;;;31.25;49.00;99921.81;4988325;28;20195;-62
2022/09/07 09:29:51;;;;;;;5.70;2.22;;;;;;;32.50;45.41;99913.13;4991517;28;20194;-62
2022/09/07 09:32:34;;;;;;;4.05;1.98;;;;;;;32.41;41.97;99931.28;4983928;28;20227;-63
2022/09/07 09:35:09;;;;;;;6.43;2.03;;;;;;;32.87;40.94;99922.69;4989072;28;20186;-63
2022/09/07 09:37:39;;;;;;;4.03;2.17;;;;;;;34.81;36.74;99927.97;4984394;28;20622;-63
2022/09/07 09:40:08;;;;;;;7.78;2.10;;;;;;;35.52;34.79;99924.47;4981277;28;20269;-63
2022/09/07 09:42:35;;;;;;;3.70;2.28;;;;;;;35.45;34.40;99924.69;5006869;28;20175;-63
2022/09/07 09:45:13;;;;;;;4.10;2.20;;;;;;;34.22;36.42;99929.31;4982171;28;20235;-63
2022/09/07 09:47:39;;;;;;;4.40;1.95;;;;;;;35.45;35.09;99923.88;4989618;28;20606;-63
2022/09/07 09:50:14;;;;;;;4.35;2.08;;;;;;;36.77;32.33;99918.88;4970156;28;20271;-65
2022/09/07 09:52:45;;;;;;;5.60;1.65;;;;;;;36.97;32.62;99924.31;5005691;28;20191;-63
2022/09/07 09:55:28;;;;;;;8.05;2.45;;;;;;;35.16;34.94;99924.09;4984797;28;20199;-64
2022/09/07 09:57:57;;;;;;;9.88;2.60;;;;;;;33.18;38.42;99905.41;4987158;28;20218;-63
2022/09/07 10:00:25;;;;;;;4.70;2.10;;;;;;;32.91;39.69;99902.50;4983180;28;20249;-63
2022/09/07 10:02:58;;;;;;;3.47;2.00;;;;;;;33.82;39.15;99903.59;4995554;28;20195;-63
2022/09/07 10:05:38;;;;;;;4.30;2.10;;;;;;;32.08;40.52;99899.91;4989444;28;20527;-62
2022/09/07 10:08:15;;;;;;;4.88;1.83;;;;;;;33.78;39.49;99904.09;4990575;28;20187;-63
2022/09/07 10:11:04;;;;;;;6.15;2.15;;;;;;;36.37;34.56;99905.03;4988576;28;20296;-64
2022/09/07 10:13:33;;;;;;;2.17;1.88;;;;;;;36.76;32.86;99901.97;4986811;28;20234;-63
2022/09/07 10:16:03;;;;;;;6.40;2.35;;;;;;;36.43;33.79;99906.69;4991075;28;20661;-63
2022/09/07 10:18:31;;;;;;;5.00;2.40;;;;;;;35.49;35.38;99885.69;4994239;28;20190;-63
2022/09/07 10:21:22;;;;;;;9.90;1.80;;;;;;;34.95;35.54;99883.00;4980620;28;20238;-63
2022/09/07 10:23:52;;;;;;;4.88;1.88;;;;;;;36.35;33.39;99886.50;4989254;28;20625;-63
2022/09/07 10:26:32;;;;;;;2.25;1.67;;;;;;;35.35;35.04;99879.91;4991064;28;20188;-63
2022/09/07 10:29:10;;;;;;;5.68;2.10;;;;;;;36.85;32.55;99880.81;4992858;28;20187;-63
2022/09/07 10:31:45;;;;;;;6.38;2.38;;;;;;;36.36;32.54;99876.63;4990224;28;20309;-63
2022/09/07 10:34:29;;;;;;;4.20;2.00;;;;;;;33.97;38.64;99877.19;4982483;28;20234;-63
2022/09/07 10:37:03;;;;;;;3.78;2.05;;;;;;;32.38;42.63;99867.09;4993270;28;20249;-63
2022/09/07 10:39:36;;;;;;;4.25;2.00;;;;;;;30.98;45.95;99873.50;4979083;28;20188;-63
2022/09/07 10:42:16;;;;;;;8.20;2.58;;;;;;;30.07;48.91;99869.53;4991222;28;20238;-62
2022/09/07 10:45:03;;;;;;;5.00;2.13;;;;;;;30.00;50.73;99860.84;4984300;28;20214;-62
2022/09/07 10:47:54;;;;;;;5.28;2.40;;;;;;;29.24;52.86;99855.44;4980700;28;20191;-63
2022/09/07 10:50:47;;;;;;;7.55;2.45;;;;;;;28.81;55.62;99834.88;4982237;28;20184;-62
2022/09/07 10:53:21;;;;;;;5.78;2.50;;;;;;;27.91;58.45;99843.34;4997402;28;20188;-62
2022/09/07 10:56:11;;;;;;;6.70;2.30;;;;;;;27.15;62.00;99851.38;4990933;28;20229;-62
2022/09/07 10:59:14;;;;;;;8.95;3.47;;;;;;;26.65;61.40;99840.19;4995852;28;20651;-63
2022/09/07 11:01:45;;;;;;;5.32;2.50;;;;;;;26.84;60.85;99836.03;4984298;28;20316;-62
2022/09/07 11:04:17;;;;;;;3.50;2.40;;;;;;;26.90;63.11;99822.88;4987927;28;20188;-63
2022/09/07 11:06:49;;;;;;;3.50;2.50;;;;;;;26.75;66.89;99830.13;4982247;28;20537;-62
2022/09/07 11:09:39;;;;;;;5.05;2.40;;;;;;;26.33;66.54;99816.88;4990227;28;20183;-62
2022/09/07 11:12:15;;;;;;;4.30;2.35;;;;;;;26.12;63.83;99824.88;4986719;28;20541;-62
2022/09/07 11:15:00;;;;;;;6.10;2.58;;;;;;;26.49;64.75;99825.50;4988988;28;20300;-62
2022/09/07 11:17:29;;;;;;;2.70;2.03;;;;;;;27.10;64.44;99819.47;4979955;28;20622;-62
2022/09/07 11:20:07;;;;;;;3.05;2.38;;;;;;;27.47;60.69;99817.31;4984671;28;20702;-62
2022/09/07 11:22:40;;;;;;;4.50;2.30;;;;;;;27.71;57.89;99820.41;4981043;28;20214;-62
2022/09/07 11:25:23;;;;;;;5.30;2.30;;;;;;;27.97;57.40;99816.09;4989721;28;20706;-62
2022/09/07 11:27:54;;;;;;;3.10;2.10;;;;;;;28.20;56.38;99812.25;4993973;28;20203;-63
2022/09/07 11:30:23;;;;;;;4.40;2.08;;;;;;;28.23;53.26;99809.19;4958679;28;20547;-62
2022/09/07 11:32:57;;;;;;;2.55;2.28;;;;;;;27.89;53.58;99803.94;4986259;28;20635;-62
2022/09/07 11:35:39;;;;;;;6.68;2.42;;;;;;;28.30;55.87;99799.41;4996780;28;20658;-62
2022/09/07 11:38:13;;;;;;;6.82;2.40;;;;;;;28.38;54.45;99803.66;4983390;28;20192;-63
2022/09/07 11:40:48;;;;;;;3.83;1.95;;;;;;;28.31;55.15;99803.69;4980496;28;20614;-63